createdAt,value
2023-12-18T00:00:07.097Z,69.90
2023-12-18T00:01:07.181Z,73.10
2023-12-18T00:02:07.038Z,64.60
2023-12-18T00:03:07.127Z,73.20
2023-12-18T00:04:07.095Z,68.10
2023-12-18T00:05:07.059Z,74.10
2023-12-18T00:06:07.018Z,73.80
2023-12-18T00:07:07.009Z,84.90
2023-12-18T00:08:06.992Z,76.10
2023-12-18T00:09:06.996Z,74.90
2023-12-18T00:10:06.972Z,79.90
2023-12-18T00:11:06.928Z,77.70
2023-12-18T00:12:06.923Z,83.50
2023-12-18T00:13:06.962Z,72.00
2023-12-18T00:14:06.893Z,82.70
2023-12-18T00:15:06.918Z,75.20
2023-12-18T00:16:06.834Z,83.50
2023-12-18T00:17:06.927Z,98.90
2023-12-18T00:18:06.966Z,78.00
2023-12-18T00:19:06.948Z,107.70
2023-12-18T00:20:06.830Z,78.20
2023-12-18T00:21:06.814Z,85.30
2023-12-18T00:22:06.762Z,85.70
2023-12-18T00:23:06.769Z,80.40
2023-12-18T00:24:06.797Z,80.50
2023-12-18T00:25:06.778Z,84.30
2023-12-18T00:26:06.734Z,87.80
2023-12-18T00:27:06.763Z,74.40
2023-12-18T00:28:06.727Z,77.30
2023-12-18T00:29:06.748Z,85.30
2023-12-18T00:30:06.704Z,83.00
2023-12-18T00:31:06.757Z,72.30
2023-12-18T00:32:06.636Z,77.70
2023-12-18T00:33:06.738Z,81.00
2023-12-18T00:34:06.792Z,80.70
2023-12-18T00:35:06.666Z,83.80
2023-12-18T00:36:06.609Z,86.20
2023-12-18T00:37:06.629Z,102.50
2023-12-18T00:38:06.602Z,88.20
2023-12-18T00:39:06.581Z,79.50
2023-12-18T00:40:06.615Z,91.30
2023-12-18T00:41:07.017Z,98.80
2023-12-18T00:42:06.595Z,82.00
2023-12-18T00:43:06.499Z,79.60
2023-12-18T00:44:06.519Z,89.70
2023-12-18T00:45:06.492Z,71.00
2023-12-18T00:46:06.532Z,76.30
2023-12-18T00:47:06.456Z,81.00
2023-12-18T00:48:06.525Z,83.40
2023-12-18T00:49:06.598Z,83.10
2023-12-18T00:50:07.897Z,88.70
2023-12-18T00:51:06.435Z,89.40
2023-12-18T00:52:06.443Z,94.10
2023-12-18T00:53:06.370Z,95.90
2023-12-18T00:54:06.440Z,89.10
2023-12-18T00:55:06.376Z,84.00
2023-12-18T00:56:06.398Z,81.50
2023-12-18T00:57:06.356Z,104.50
2023-12-18T00:58:06.356Z,76.40
2023-12-18T00:59:06.297Z,106.10
2023-12-18T01:00:06.379Z,84.70
2023-12-18T01:01:06.439Z,89.80
2023-12-18T01:02:06.286Z,74.10
2023-12-18T01:03:06.337Z,81.40
2023-12-18T01:04:06.353Z,95.30
2023-12-18T01:05:06.281Z,79.70
2023-12-18T01:06:06.260Z,67.90
2023-12-18T01:07:06.196Z,79.40
2023-12-18T01:08:06.191Z,94.20
2023-12-18T01:09:06.202Z,93.40
2023-12-18T01:10:06.191Z,90.60
2023-12-18T01:11:06.155Z,75.20
2023-12-18T01:12:06.180Z,82.30
2023-12-18T01:13:06.133Z,73.10
2023-12-18T01:14:06.164Z,65.80
2023-12-18T01:15:06.122Z,85.80
2023-12-18T01:16:06.089Z,84.20
2023-12-18T01:17:06.091Z,69.90
2023-12-18T01:18:06.230Z,90.60
2023-12-18T01:19:06.213Z,84.00
2023-12-18T01:20:06.083Z,75.80
2023-12-18T01:21:06.055Z,87.60
2023-12-18T01:22:06.073Z,107.10
2023-12-18T01:23:05.994Z,97.10
2023-12-18T01:24:06.033Z,95.20
2023-12-18T01:25:05.998Z,89.20
2023-12-18T01:26:05.979Z,102.90
2023-12-18T01:27:05.952Z,76.50
2023-12-18T01:28:05.937Z,106.50
2023-12-18T01:29:05.940Z,72.60
2023-12-18T01:30:05.977Z,104.20
2023-12-18T01:31:05.968Z,89.20
2023-12-18T01:32:05.910Z,100.60
2023-12-18T01:33:06.018Z,88.00
2023-12-18T01:34:05.923Z,74.90
2023-12-18T01:35:05.837Z,73.10
2023-12-18T01:36:05.952Z,77.90
2023-12-18T01:37:05.825Z,74.30
2023-12-18T01:38:05.820Z,71.80
2023-12-18T01:39:05.788Z,80.70
2023-12-18T01:40:05.796Z,62.50
2023-12-18T01:41:05.770Z,79.40
2023-12-18T01:42:05.837Z,70.90
2023-12-18T01:43:05.722Z,65.20
2023-12-18T01:44:05.771Z,79.80
2023-12-18T01:45:05.714Z,64.30
2023-12-18T01:46:05.710Z,66.20
2023-12-18T01:47:05.668Z,71.10
2023-12-18T01:48:05.800Z,58.10
2023-12-18T01:49:05.800Z,70.80
2023-12-18T01:50:05.691Z,75.60
2023-12-18T01:51:05.682Z,75.80
2023-12-18T01:52:05.618Z,65.50
2023-12-18T01:53:05.594Z,63.70
2023-12-18T01:54:05.652Z,65.00
2023-12-18T01:55:05.572Z,58.20
2023-12-18T01:56:05.579Z,61.80
2023-12-18T01:57:05.656Z,61.80
2023-12-18T01:58:05.558Z,64.40
2023-12-18T01:59:05.506Z,61.20
2023-12-18T02:00:05.593Z,56.50
2023-12-18T02:01:05.648Z,59.40
2023-12-18T02:02:05.499Z,54.80
2023-12-18T02:03:05.527Z,60.40
2023-12-18T02:04:05.581Z,53.30
2023-12-18T02:05:05.433Z,50.00
2023-12-18T02:06:05.493Z,59.10
2023-12-18T02:07:05.429Z,53.00
2023-12-18T02:08:05.427Z,56.00
2023-12-18T02:09:05.504Z,47.60
2023-12-18T02:10:05.416Z,50.60
2023-12-18T02:11:05.349Z,48.50
2023-12-18T02:12:05.428Z,48.20
2023-12-18T02:13:05.356Z,50.80
2023-12-18T02:14:05.376Z,43.90
2023-12-18T02:15:05.365Z,46.00
2023-12-18T02:16:05.350Z,50.70
2023-12-18T02:17:05.310Z,56.20
2023-12-18T02:18:05.422Z,49.60
2023-12-18T02:19:05.311Z,49.20
2023-12-18T02:20:05.336Z,54.70
2023-12-18T02:21:05.280Z,59.40
2023-12-18T02:22:05.256Z,48.20
2023-12-18T02:23:05.245Z,51.20
2023-12-18T02:24:05.249Z,52.50
2023-12-18T02:25:05.232Z,50.80
2023-12-18T02:26:05.204Z,49.10
2023-12-18T02:27:05.170Z,46.90
2023-12-18T02:28:05.157Z,49.50
2023-12-18T02:29:05.125Z,50.30
2023-12-18T02:30:05.307Z,49.50
2023-12-18T02:31:05.210Z,43.50
2023-12-18T02:32:05.114Z,46.00
2023-12-18T02:33:05.146Z,48.10
2023-12-18T02:34:05.206Z,50.90
2023-12-18T02:35:05.149Z,45.70
2023-12-18T02:36:05.152Z,49.50
2023-12-18T02:37:05.014Z,48.40
2023-12-18T02:38:05.063Z,36.00
2023-12-18T02:39:05.053Z,43.20
2023-12-18T02:40:05.008Z,49.60
2023-12-18T02:41:04.973Z,46.20
2023-12-18T02:42:05.012Z,45.60
2023-12-18T02:43:05.233Z,63.00
2023-12-18T02:44:04.990Z,50.60
2023-12-18T02:45:04.992Z,42.50
2023-12-18T02:46:04.988Z,45.10
2023-12-18T02:47:04.916Z,43.90
2023-12-18T02:48:04.987Z,42.50
2023-12-18T02:49:04.906Z,50.80
2023-12-18T02:50:04.879Z,46.80
2023-12-18T02:51:04.944Z,51.10
2023-12-18T02:52:04.872Z,47.00
2023-12-18T02:53:04.836Z,44.60
2023-12-18T02:54:04.908Z,47.40
2023-12-18T02:55:04.812Z,44.50
2023-12-18T02:56:04.824Z,56.70
2023-12-18T02:57:04.848Z,44.80
2023-12-18T02:58:04.793Z,59.40
2023-12-18T02:59:04.783Z,49.00
2023-12-18T03:00:04.849Z,40.90
2023-12-18T03:01:04.735Z,47.40
2023-12-18T03:02:04.742Z,49.10
2023-12-18T03:03:04.800Z,47.40
2023-12-18T03:04:04.819Z,45.00
2023-12-18T03:05:04.716Z,42.40
2023-12-18T03:06:04.747Z,42.70
2023-12-18T03:07:04.633Z,55.60
2023-12-18T03:08:04.668Z,42.10
2023-12-18T03:09:04.635Z,55.60
2023-12-18T03:10:04.635Z,49.10
2023-12-18T03:11:04.598Z,66.00
2023-12-18T03:12:04.617Z,51.60
2023-12-18T03:13:04.582Z,54.20
2023-12-18T03:14:04.565Z,44.70
2023-12-18T03:15:04.572Z,53.30
2023-12-18T03:16:04.611Z,55.80
2023-12-18T03:17:04.519Z,46.90
2023-12-18T03:18:04.610Z,48.30
2023-12-18T03:19:04.524Z,43.60
2023-12-18T03:20:04.501Z,59.90
2023-12-18T03:21:04.468Z,46.60
2023-12-18T03:22:04.508Z,56.80
2023-12-18T03:23:04.429Z,48.60
2023-12-18T03:24:04.462Z,49.40
2023-12-18T03:25:04.434Z,59.60
2023-12-18T03:26:04.410Z,53.60
2023-12-18T03:27:04.417Z,44.00
2023-12-18T03:28:04.439Z,42.00
2023-12-18T03:29:04.360Z,45.40
2023-12-18T03:30:04.449Z,62.90
2023-12-18T03:31:04.399Z,61.70
2023-12-18T03:32:04.351Z,42.80
2023-12-18T03:33:04.396Z,49.60
2023-12-18T03:34:04.506Z,43.90
2023-12-18T03:35:04.294Z,48.20
2023-12-18T03:36:04.306Z,40.70
2023-12-18T03:37:04.241Z,48.00
2023-12-18T03:38:04.283Z,49.90
2023-12-18T03:39:04.280Z,43.60
2023-12-18T03:40:04.243Z,44.80
2023-12-18T03:41:04.223Z,43.00
2023-12-18T03:42:04.282Z,43.20
2023-12-18T03:43:04.186Z,45.90
2023-12-18T03:44:04.182Z,45.70
2023-12-18T03:45:04.207Z,43.80
2023-12-18T03:46:04.153Z,51.30
2023-12-18T03:47:04.135Z,47.60
2023-12-18T03:48:04.342Z,48.20
2023-12-18T03:49:04.188Z,48.40
2023-12-18T03:50:04.106Z,60.60
2023-12-18T03:51:04.123Z,59.00
2023-12-18T03:52:04.061Z,55.20
2023-12-18T03:53:04.040Z,44.10
2023-12-18T03:54:04.200Z,45.20
2023-12-18T03:55:04.035Z,57.80
2023-12-18T03:56:04.018Z,51.50
2023-12-18T03:57:04.058Z,53.40
2023-12-18T03:58:04.008Z,48.80
2023-12-18T03:59:04.014Z,89.80
2023-12-18T04:00:04.024Z,71.20
2023-12-18T04:01:04.073Z,66.80
2023-12-18T04:02:03.953Z,55.40
2023-12-18T04:03:03.931Z,66.40
2023-12-18T04:04:04.157Z,53.90
2023-12-18T04:05:03.936Z,59.90
2023-12-18T04:06:03.937Z,67.20
2023-12-18T04:07:03.873Z,73.20
2023-12-18T04:08:03.892Z,61.10
2023-12-18T04:09:03.957Z,57.90
2023-12-18T04:10:03.890Z,50.60
2023-12-18T04:11:03.804Z,46.10
2023-12-18T04:12:03.934Z,46.20
2023-12-18T04:13:03.798Z,45.10
2023-12-18T04:14:03.784Z,49.20
2023-12-18T04:15:03.839Z,46.90
2023-12-18T04:16:03.793Z,53.40
2023-12-18T04:17:03.733Z,71.70
2023-12-18T04:18:03.934Z,51.70
2023-12-18T04:19:03.992Z,57.00
2023-12-18T04:20:03.774Z,49.60
2023-12-18T04:21:03.717Z,44.40
2023-12-18T04:22:03.690Z,51.70
2023-12-18T04:23:03.652Z,60.20
2023-12-18T04:24:03.749Z,49.90
2023-12-18T04:25:03.634Z,60.20
2023-12-18T04:26:03.668Z,49.80
2023-12-18T04:27:03.612Z,54.20
2023-12-18T04:28:04.358Z,66.00
2023-12-18T04:29:03.577Z,56.40
2023-12-18T04:30:03.711Z,65.00
2023-12-18T04:31:03.669Z,71.00
2023-12-18T04:32:03.566Z,71.40
2023-12-18T04:33:03.660Z,55.10
2023-12-18T04:34:03.629Z,48.80
2023-12-18T04:35:03.547Z,54.80
2023-12-18T04:36:03.601Z,51.80
2023-12-18T04:37:04.975Z,63.60
2023-12-18T04:38:03.577Z,61.90
2023-12-18T04:39:03.458Z,57.10
2023-12-18T04:40:03.483Z,63.40
2023-12-18T04:41:03.450Z,53.10
2023-12-18T04:42:03.484Z,60.70
2023-12-18T04:43:03.396Z,58.10
2023-12-18T04:44:03.415Z,53.30
2023-12-18T04:45:03.428Z,56.50
2023-12-18T04:46:03.434Z,55.50
2023-12-18T04:47:03.350Z,61.40
2023-12-18T04:48:03.482Z,59.60
2023-12-18T04:49:03.427Z,50.40
2023-12-18T04:50:03.333Z,44.60
2023-12-18T04:51:03.364Z,42.20
2023-12-18T04:52:03.309Z,56.90
2023-12-18T04:53:03.263Z,42.00
2023-12-18T04:54:03.337Z,41.80
2023-12-18T04:55:03.267Z,46.60
2023-12-18T04:56:03.257Z,53.70
2023-12-18T04:57:03.294Z,48.70
2023-12-18T04:58:03.203Z,45.80
2023-12-18T04:59:03.202Z,46.20
2023-12-18T05:00:03.208Z,41.70
2023-12-18T05:01:03.268Z,42.10
2023-12-18T05:02:03.143Z,44.00
2023-12-18T05:03:03.232Z,45.00
2023-12-18T05:04:03.199Z,47.60
2023-12-18T05:05:03.158Z,41.60
2023-12-18T05:06:03.139Z,49.80
2023-12-18T05:07:03.107Z,43.50
2023-12-18T05:08:03.069Z,39.30
2023-12-18T05:09:03.232Z,44.90
2023-12-18T05:10:03.041Z,41.50
2023-12-18T05:11:03.068Z,40.20
2023-12-18T05:12:03.033Z,37.00
2023-12-18T05:13:03.052Z,50.20
2023-12-18T05:14:03.008Z,45.20
2023-12-18T05:15:04.367Z,47.40
2023-12-18T05:16:03.011Z,47.70
2023-12-18T05:17:03.019Z,41.40
2023-12-18T05:18:03.032Z,43.40
2023-12-18T05:19:03.003Z,46.10
2023-12-18T05:20:02.958Z,58.80
2023-12-18T05:21:02.928Z,49.90
2023-12-18T05:22:02.913Z,46.40
2023-12-18T05:23:02.916Z,47.20
2023-12-18T05:24:02.867Z,48.00
2023-12-18T05:25:02.909Z,52.40
2023-12-18T05:26:02.844Z,64.20
2023-12-18T05:27:02.862Z,55.20
2023-12-18T05:28:02.828Z,58.20
2023-12-18T05:29:02.834Z,53.20
2023-12-18T05:30:02.834Z,49.30
2023-12-18T05:31:02.865Z,46.00
2023-12-18T05:32:02.791Z,48.00
2023-12-18T05:33:02.851Z,43.70
2023-12-18T05:34:02.874Z,52.60
2023-12-18T05:35:02.772Z,48.80
2023-12-18T05:36:02.705Z,46.90
2023-12-18T05:37:02.743Z,56.20
2023-12-18T05:38:02.714Z,63.80
2023-12-18T05:39:02.713Z,47.20
2023-12-18T05:40:02.651Z,57.50
2023-12-18T05:41:02.702Z,43.80
2023-12-18T05:42:02.651Z,56.00
2023-12-18T05:43:02.731Z,57.90
2023-12-18T05:44:02.607Z,47.50
2023-12-18T05:45:02.632Z,54.40
2023-12-18T05:46:02.580Z,60.70
2023-12-18T05:47:02.606Z,52.90
2023-12-18T05:48:02.802Z,57.40
2023-12-18T05:49:02.716Z,53.40
2023-12-18T05:50:02.666Z,49.50
2023-12-18T05:51:02.561Z,49.50
2023-12-18T05:52:02.573Z,46.20
2023-12-18T05:53:02.549Z,43.50
2023-12-18T05:54:02.497Z,51.50
2023-12-18T05:55:02.994Z,51.40
2023-12-18T05:56:02.448Z,49.70
2023-12-18T05:57:02.487Z,44.10
2023-12-18T05:58:02.468Z,51.90
2023-12-18T05:59:02.471Z,50.60
2023-12-18T06:00:02.412Z,51.50
2023-12-18T06:01:03.078Z,63.90
2023-12-18T06:02:02.398Z,51.90
2023-12-18T06:03:02.420Z,49.40
2023-12-18T06:04:02.409Z,46.50
2023-12-18T06:05:02.359Z,46.40
2023-12-18T06:06:02.355Z,52.10
2023-12-18T06:07:02.375Z,53.70
2023-12-18T06:08:02.335Z,47.80
2023-12-18T06:09:02.311Z,51.20
2023-12-18T06:10:02.323Z,52.60
2023-12-18T06:11:02.282Z,58.40
2023-12-18T06:12:02.272Z,47.80
2023-12-18T06:13:02.379Z,46.30
2023-12-18T06:14:02.267Z,55.80
2023-12-18T06:15:02.241Z,49.80
2023-12-18T06:16:02.187Z,50.90
2023-12-18T06:17:02.233Z,48.60
2023-12-18T06:18:02.240Z,45.60
2023-12-18T06:19:02.322Z,48.90
2023-12-18T06:20:02.177Z,70.20
2023-12-18T06:21:02.150Z,55.80
2023-12-18T06:22:02.123Z,53.90
2023-12-18T06:23:02.179Z,51.00
2023-12-18T06:24:02.124Z,57.70
2023-12-18T06:25:02.160Z,64.50
2023-12-18T06:26:03.487Z,85.70
2023-12-18T06:27:02.106Z,73.80
2023-12-18T06:28:02.065Z,96.30
2023-12-18T06:29:02.046Z,92.70
2023-12-18T06:30:02.011Z,90.50
2023-12-18T06:31:02.235Z,76.00
2023-12-18T06:32:02.085Z,55.60
2023-12-18T06:33:02.117Z,58.70
2023-12-18T06:34:02.143Z,54.80
2023-12-18T06:35:02.112Z,65.40
2023-12-18T06:36:01.994Z,72.00
2023-12-18T06:37:01.936Z,56.80
2023-12-18T06:38:01.904Z,47.00
2023-12-18T06:39:01.936Z,46.40
2023-12-18T06:40:01.899Z,44.50
2023-12-18T06:41:01.927Z,45.20
2023-12-18T06:42:01.856Z,37.70
2023-12-18T06:43:01.900Z,41.50
2023-12-18T06:44:01.866Z,49.50
2023-12-18T06:45:01.828Z,40.10
2023-12-18T06:46:01.817Z,48.90
2023-12-18T06:47:01.834Z,49.10
2023-12-18T06:48:01.899Z,40.90
2023-12-18T06:49:01.851Z,58.10
2023-12-18T06:50:01.785Z,42.80
2023-12-18T06:51:01.757Z,40.30
2023-12-18T06:52:01.761Z,41.60
2023-12-18T06:53:01.751Z,43.10
2023-12-18T06:54:01.701Z,40.50
2023-12-18T06:55:01.728Z,38.70
2023-12-18T06:56:01.706Z,47.10
2023-12-18T06:57:01.681Z,45.70
2023-12-18T06:58:01.644Z,42.40
2023-12-18T06:59:01.653Z,48.10
2023-12-18T07:00:01.641Z,48.50
2023-12-18T07:01:01.827Z,50.10
2023-12-18T07:02:01.626Z,44.20
2023-12-18T07:03:01.681Z,40.00
2023-12-18T07:04:01.653Z,51.20
2023-12-18T07:05:01.614Z,60.90
2023-12-18T07:06:01.562Z,45.50
2023-12-18T07:07:01.587Z,81.90
2023-12-18T07:08:01.527Z,63.10
2023-12-18T07:09:01.595Z,90.00
2023-12-18T07:10:01.593Z,70.70
2023-12-18T07:11:01.554Z,48.90
2023-12-18T07:12:01.458Z,41.90
2023-12-18T07:13:01.522Z,43.90
2023-12-18T07:14:01.439Z,41.60
2023-12-18T07:15:01.517Z,47.80
2023-12-18T07:16:01.469Z,37.80
2023-12-18T07:17:01.445Z,38.60
2023-12-18T07:18:01.431Z,37.30
2023-12-18T07:19:01.546Z,42.40
2023-12-18T07:20:01.392Z,36.50
2023-12-18T07:21:01.368Z,42.80
2023-12-18T07:22:01.375Z,39.30
2023-12-18T07:23:01.377Z,41.00
2023-12-18T07:24:01.316Z,42.20
2023-12-18T07:25:01.344Z,39.80
2023-12-18T07:26:01.324Z,41.80
2023-12-18T07:27:01.314Z,43.20
2023-12-18T07:28:01.399Z,38.30
2023-12-18T07:29:01.315Z,42.00
2023-12-18T07:30:01.221Z,38.70
2023-12-18T07:31:01.364Z,40.50
2023-12-18T07:32:01.220Z,38.20
2023-12-18T07:33:01.310Z,37.20
2023-12-18T07:34:01.340Z,39.60
2023-12-18T07:35:01.403Z,36.10
2023-12-18T07:36:01.188Z,39.90
2023-12-18T07:37:01.180Z,38.20
2023-12-18T07:38:01.148Z,39.70
2023-12-18T07:39:01.151Z,39.00
2023-12-18T07:40:01.138Z,42.30
2023-12-18T07:41:01.139Z,44.20
2023-12-18T07:42:01.118Z,47.60
2023-12-18T07:43:01.094Z,48.60
2023-12-18T07:44:01.050Z,53.10
2023-12-18T07:45:01.089Z,52.20
2023-12-18T07:46:01.073Z,49.20
2023-12-18T07:47:01.068Z,43.10
2023-12-18T07:48:01.084Z,47.10
2023-12-18T07:49:01.163Z,42.10
2023-12-18T07:50:01.006Z,44.20
2023-12-18T07:51:01.000Z,40.50
2023-12-18T07:52:00.978Z,46.50
2023-12-18T07:53:00.981Z,40.60
2023-12-18T07:54:00.979Z,42.10
2023-12-18T07:55:00.938Z,44.10
2023-12-18T07:56:00.903Z,42.80
2023-12-18T07:57:00.923Z,40.90
2023-12-18T07:58:00.873Z,37.20
2023-12-18T07:59:00.885Z,38.90
2023-12-18T08:00:00.891Z,36.50
2023-12-18T08:01:00.948Z,40.70
2023-12-18T08:02:00.850Z,40.20
2023-12-18T08:03:00.875Z,38.10
2023-12-18T08:04:00.911Z,42.00
2023-12-18T08:05:00.846Z,39.80
2023-12-18T08:06:00.801Z,40.10
2023-12-18T08:07:00.788Z,37.70
2023-12-18T08:08:00.824Z,38.80
2023-12-18T08:09:00.772Z,36.20
2023-12-18T08:10:00.719Z,40.70
2023-12-18T08:11:00.758Z,36.70
2023-12-18T08:12:00.707Z,39.80
2023-12-18T08:13:00.753Z,42.00
2023-12-18T08:14:00.686Z,42.80
2023-12-18T08:15:00.725Z,38.70
2023-12-18T08:16:00.642Z,38.80
2023-12-18T08:17:00.653Z,38.40
2023-12-18T08:18:00.701Z,42.20
2023-12-18T08:19:00.735Z,42.80
2023-12-18T08:20:00.589Z,38.20
2023-12-18T08:21:00.621Z,37.70
2023-12-18T08:22:00.580Z,39.40
2023-12-18T08:23:00.591Z,50.70
2023-12-18T08:24:00.548Z,52.80
2023-12-18T08:25:00.613Z,43.60
2023-12-18T08:26:00.553Z,48.10
2023-12-18T08:27:00.551Z,45.90
2023-12-18T08:28:00.684Z,37.10
2023-12-18T08:29:00.500Z,57.40
2023-12-18T08:30:00.506Z,72.90
2023-12-18T08:31:00.573Z,50.20
2023-12-18T08:32:00.501Z,40.80
2023-12-18T08:33:00.542Z,40.00
2023-12-18T08:34:00.636Z,51.00
2023-12-18T08:35:00.432Z,60.90
2023-12-18T08:36:00.394Z,47.20
2023-12-18T08:37:00.431Z,37.10
2023-12-18T08:38:00.438Z,36.70
2023-12-18T08:39:00.996Z,33.90
2023-12-18T08:40:00.508Z,33.70
2023-12-18T08:41:00.359Z,31.90
2023-12-18T08:42:00.323Z,34.60
2023-12-18T08:43:00.414Z,34.10
2023-12-18T08:44:05.593Z,35.80
2023-12-18T08:45:00.373Z,36.20
2023-12-18T08:46:00.265Z,35.20
2023-12-18T08:47:00.260Z,38.90
2023-12-18T08:48:00.376Z,36.40
2023-12-18T08:49:00.414Z,43.20
2023-12-18T08:50:00.204Z,39.00
2023-12-18T08:51:00.228Z,35.90
2023-12-18T08:52:00.298Z,29.40
2023-12-18T08:53:00.197Z,33.80
2023-12-18T08:54:00.191Z,35.40
2023-12-18T08:55:00.216Z,35.40
2023-12-18T08:56:00.162Z,36.10
2023-12-18T08:57:00.160Z,33.30
2023-12-18T08:58:00.137Z,39.60
2023-12-18T08:59:00.120Z,38.20
2023-12-18T09:00:00.069Z,38.00
2023-12-18T09:01:00.162Z,32.90
2023-12-18T09:02:00.058Z,33.90
2023-12-18T09:03:00.089Z,40.70
2023-12-18T09:04:00.125Z,33.20
2023-12-18T09:05:00.038Z,34.70
2023-12-18T09:06:00.014Z,34.60
2023-12-18T09:07:00.055Z,33.50
2023-12-18T09:08:00.012Z,35.50
2023-12-18T09:08:59.988Z,32.90
2023-12-18T09:09:59.974Z,32.00
2023-12-18T09:10:59.937Z,29.60
2023-12-18T09:11:59.944Z,27.60
2023-12-18T09:12:59.944Z,30.00
2023-12-18T09:13:59.948Z,26.20
2023-12-18T09:14:59.873Z,26.50
2023-12-18T09:15:59.889Z,25.80
2023-12-18T09:16:59.846Z,32.80
2023-12-18T09:17:59.889Z,26.80
2023-12-18T09:19:00.103Z,26.20
2023-12-18T09:19:59.914Z,30.90
2023-12-18T09:20:59.836Z,33.30
2023-12-18T09:21:59.837Z,28.70
2023-12-18T09:22:59.798Z,25.00
2023-12-18T09:23:59.798Z,29.20
2023-12-18T09:24:59.809Z,22.40
2023-12-18T09:25:59.804Z,22.40
2023-12-18T09:26:59.728Z,25.50
2023-12-18T09:27:59.728Z,21.80
2023-12-18T09:28:59.763Z,21.50
2023-12-18T09:29:59.695Z,19.70
2023-12-18T09:30:59.794Z,21.30
2023-12-18T09:31:59.834Z,21.60
2023-12-18T09:32:59.794Z,21.30
2023-12-18T09:33:59.842Z,20.30
2023-12-18T09:34:59.715Z,19.20
2023-12-18T09:36:00.950Z,18.30
2023-12-18T09:36:59.629Z,20.00
2023-12-18T09:37:59.609Z,20.60
2023-12-18T09:38:59.598Z,21.90
2023-12-18T09:39:59.561Z,22.10
2023-12-18T09:40:59.532Z,19.00
2023-12-18T09:41:59.597Z,18.50
2023-12-18T09:42:59.607Z,18.70
2023-12-18T09:43:59.526Z,17.70
2023-12-18T09:44:59.495Z,20.70
2023-12-18T09:46:00.017Z,22.10
2023-12-18T09:46:59.486Z,17.30
2023-12-18T09:47:59.594Z,18.00
2023-12-18T09:48:59.554Z,19.60
2023-12-18T09:49:59.469Z,19.50
2023-12-18T09:50:59.407Z,17.70
2023-12-18T09:51:59.424Z,20.10
2023-12-18T09:52:59.372Z,20.40
2023-12-18T09:53:59.418Z,16.30
2023-12-18T09:54:59.369Z,17.20
2023-12-18T09:55:59.385Z,17.50
2023-12-18T09:56:59.352Z,18.10
2023-12-18T09:57:59.361Z,17.10
2023-12-18T09:58:59.302Z,17.70
2023-12-18T09:59:59.314Z,16.10
2023-12-18T10:00:59.425Z,22.80
2023-12-18T10:01:59.330Z,30.30
2023-12-18T10:02:59.275Z,27.80
2023-12-18T10:03:59.292Z,21.70
2023-12-18T10:04:59.279Z,18.40
2023-12-18T10:05:59.236Z,17.60
2023-12-18T10:06:59.225Z,17.90
2023-12-18T10:07:59.197Z,18.90
2023-12-18T10:08:59.173Z,18.00
2023-12-18T10:09:59.250Z,18.30
2023-12-18T10:10:59.166Z,19.10
2023-12-18T10:11:59.170Z,22.00
2023-12-18T10:12:59.312Z,22.00
2023-12-18T10:13:59.170Z,21.60
2023-12-18T10:14:59.105Z,20.20
2023-12-18T10:15:59.137Z,23.70
2023-12-18T10:16:59.087Z,24.70
2023-12-18T10:17:59.113Z,22.80
2023-12-18T10:18:59.131Z,21.10
2023-12-18T10:19:59.108Z,26.00
2023-12-18T10:20:59.025Z,24.70
2023-12-18T10:21:59.036Z,22.40
2023-12-18T10:22:58.986Z,27.90
2023-12-18T10:23:59.029Z,25.10
2023-12-18T10:24:59.007Z,24.00
2023-12-18T10:25:58.964Z,24.90
2023-12-18T10:26:58.943Z,29.30
2023-12-18T10:27:58.986Z,25.50
2023-12-18T10:28:58.908Z,24.70
2023-12-18T10:29:58.927Z,28.20
2023-12-18T10:30:59.002Z,25.40
2023-12-18T10:31:58.909Z,24.10
2023-12-18T10:32:58.989Z,21.70
2023-12-18T10:33:59.022Z,21.00
2023-12-18T10:34:58.861Z,26.60
2023-12-18T10:35:58.841Z,25.10
2023-12-18T10:36:58.841Z,24.70
2023-12-18T10:37:58.875Z,25.50
2023-12-18T10:38:58.778Z,23.20
2023-12-18T10:39:58.787Z,21.90
2023-12-18T10:40:58.756Z,22.50
2023-12-18T10:41:58.769Z,26.30
2023-12-18T10:42:58.734Z,25.80
2023-12-18T10:43:58.771Z,25.60
2023-12-18T10:44:58.742Z,22.40
2023-12-18T10:45:58.774Z,26.20
2023-12-18T10:46:58.688Z,23.50
2023-12-18T10:47:58.742Z,23.90
2023-12-18T10:48:58.759Z,25.20
2023-12-18T10:49:58.687Z,24.50
2023-12-18T10:50:58.633Z,24.80
2023-12-18T10:51:58.639Z,24.50
2023-12-18T10:52:58.591Z,23.50
2023-12-18T10:53:58.635Z,25.90
2023-12-18T10:54:58.566Z,23.40
2023-12-18T10:55:58.608Z,23.60
2023-12-18T10:56:58.591Z,25.90
2023-12-18T10:57:58.611Z,23.10
2023-12-18T10:58:58.546Z,22.90
2023-12-18T10:59:58.520Z,23.80
2023-12-18T11:00:58.568Z,24.80
2023-12-18T11:01:58.507Z,21.50
2023-12-18T11:02:58.536Z,22.80
2023-12-18T11:03:58.632Z,23.90
2023-12-18T11:04:58.495Z,23.30
2023-12-18T11:05:58.466Z,26.20
2023-12-18T11:06:58.500Z,22.50
2023-12-18T11:07:58.407Z,26.00
2023-12-18T11:08:58.415Z,28.60
2023-12-18T11:09:58.423Z,26.30
2023-12-18T11:10:58.361Z,22.60
2023-12-18T11:11:58.413Z,26.00
2023-12-18T11:12:58.379Z,25.60
2023-12-18T11:13:58.368Z,21.30
2023-12-18T11:14:58.302Z,21.70
2023-12-18T11:15:58.355Z,24.80
2023-12-18T11:16:58.328Z,23.80
2023-12-18T11:17:58.398Z,23.20
2023-12-18T11:19:08.444Z,24.30
2023-12-18T11:19:58.336Z,23.00
2023-12-18T11:20:58.274Z,23.70
2023-12-18T11:21:58.259Z,22.70
2023-12-18T11:22:58.272Z,22.30
2023-12-18T11:24:04.550Z,20.20
2023-12-18T11:24:58.180Z,21.80
2023-12-18T11:25:58.569Z,21.00
2023-12-18T11:26:58.149Z,20.60
2023-12-18T11:27:58.262Z,21.50
2023-12-18T11:28:58.151Z,21.30
2023-12-18T11:29:58.127Z,18.70
2023-12-18T11:30:58.130Z,24.70
2023-12-18T11:31:58.108Z,20.30
2023-12-18T11:32:58.100Z,22.00
2023-12-18T11:33:58.155Z,21.70
2023-12-18T11:34:58.154Z,21.20
2023-12-18T11:35:58.036Z,19.30
2023-12-18T11:36:58.104Z,22.10
2023-12-18T11:37:58.030Z,23.30
2023-12-18T11:38:58.020Z,25.80
2023-12-18T11:39:58.006Z,24.40
2023-12-18T11:40:57.982Z,20.60
2023-12-18T11:41:57.945Z,20.30
2023-12-18T11:42:58.012Z,22.50
2023-12-18T11:43:57.946Z,22.70
2023-12-18T11:44:57.953Z,22.80
2023-12-18T11:46:03.740Z,20.10
2023-12-18T11:46:57.941Z,23.20
2023-12-18T11:47:58.131Z,21.90
2023-12-18T11:48:57.941Z,21.90
2023-12-18T11:49:57.909Z,20.70
2023-12-18T11:50:57.949Z,21.10
2023-12-18T11:51:57.909Z,21.60
2023-12-18T11:52:57.829Z,22.00
2023-12-18T11:53:57.806Z,20.50
2023-12-18T11:54:57.826Z,24.10
2023-12-18T11:55:57.757Z,20.70
2023-12-18T11:56:57.816Z,20.80
2023-12-18T11:57:57.796Z,17.50
2023-12-18T11:58:57.759Z,19.60
2023-12-18T11:59:57.743Z,20.30
2023-12-18T12:00:57.789Z,21.60
2023-12-18T12:01:57.717Z,21.70
2023-12-18T12:02:57.693Z,20.70
2023-12-18T12:03:57.797Z,21.10
2023-12-18T12:04:57.715Z,21.70
2023-12-18T12:05:57.797Z,23.90
2023-12-18T12:06:57.689Z,21.10
2023-12-18T12:07:57.618Z,21.40
2023-12-18T12:08:57.643Z,19.80
2023-12-18T12:09:57.624Z,20.00
2023-12-18T12:10:57.587Z,18.60
2023-12-18T12:11:57.608Z,19.60
2023-12-18T12:12:57.643Z,20.10
2023-12-18T12:13:57.583Z,20.70
2023-12-18T12:14:57.531Z,21.90
2023-12-18T12:15:57.662Z,18.30
2023-12-18T12:16:57.543Z,20.00
2023-12-18T12:17:57.563Z,18.80
2023-12-18T12:18:57.648Z,22.60
2023-12-18T12:19:57.623Z,19.40
2023-12-18T12:20:57.495Z,19.90
2023-12-18T12:21:57.452Z,19.10
2023-12-18T12:22:57.432Z,18.60
2023-12-18T12:23:57.410Z,19.90
2023-12-18T12:24:57.534Z,19.00
2023-12-18T12:25:57.396Z,19.00
2023-12-18T12:26:57.364Z,19.60
2023-12-18T12:27:57.376Z,19.60
2023-12-18T12:28:57.354Z,19.80
2023-12-18T12:29:57.330Z,20.50
2023-12-18T12:30:57.461Z,19.60
2023-12-18T12:32:03.825Z,19.90
2023-12-18T12:32:57.436Z,19.00
2023-12-18T12:33:57.419Z,19.80
2023-12-18T12:34:57.563Z,18.70
2023-12-18T12:35:57.233Z,18.90
2023-12-18T12:36:57.279Z,18.60
2023-12-18T12:37:57.258Z,21.20
2023-12-18T12:38:57.233Z,18.60
2023-12-18T12:39:57.333Z,21.70
2023-12-18T12:40:57.195Z,20.80
2023-12-18T12:41:57.184Z,17.80
2023-12-18T12:42:57.184Z,19.50
2023-12-18T12:43:57.131Z,19.80
2023-12-18T12:44:57.251Z,17.80
2023-12-18T12:45:57.167Z,17.70
2023-12-18T12:46:57.129Z,19.20
2023-12-18T12:47:57.320Z,18.50
2023-12-18T12:48:57.181Z,17.00
2023-12-18T12:49:57.190Z,16.00
2023-12-18T12:50:57.081Z,17.60
2023-12-18T12:51:57.114Z,19.70